• Join FlightAware (Why Join?)
  • Login
  • US Flag 
06:32AM EST


 

Airport Tracker/Info


-or-


 

Live Flight TrackerFlight Track Log ✈ CTL17 ✈ 18-Jun-2013 ✈ KMBS - KYIP

Flight Track Log - Related Links

Times and Time Zones

All times are in EDT time to prevent confusion due to time zone crossing. See the CTL17 flight status page for this flight to view local times or setup timezone preferences in your user account.

Time Position Orientation Groundspeed Altitude Reporting Facility
EDT Latitude Longitude Course Direction KTS MPH feet Rate Location/Type
04:53PM 43.3619 -84.0057 160° South  Level Estimated
04:54PM 43.3366 -83.9838 148° Southeast  Level FlightAware Approximate
04:55PM 43.3080 -83.9718 160° South  Level Estimated
04:56PM 43.2807 -83.9553 156° South  Level FlightAware Approximate
04:57PM 43.2533 -83.9388 156° South  Level FlightAware Approximate
04:58PM 43.2247 -83.9271 163° South  Level Estimated
04:59PM 43.1965 -83.9134 161° South  Level FlightAware Approximate
05:00PM 43.1683 -83.8997 161° South  Level FlightAware Approximate
05:01PM 43.1401 -83.8861 161° South  Level FlightAware Approximate
05:01PM 42.9469 -83.7969 161° South 176 203 5,000  Level Cleveland Center
05:02PM 43.1115 -83.8746 160° South  Level Estimated
05:02PM 42.9017 -83.7747 160° South 175 201 5,000  Level Cleveland Center
05:03PM 43.0835 -83.8603 160° South  Level FlightAware Approximate
05:03PM 42.8564 -83.7497 158° South 175 201 5,000  Level Cleveland Center
05:04PM 43.0555 -83.8461 160° South  Level FlightAware Approximate
05:04PM 42.8028 -83.7300 165° South 174 200 5,000  Level Cleveland Center
05:05PM 43.0275 -83.8318 160° South  Level FlightAware Approximate
05:05PM 42.7531 -83.7164 169° South 177 204 5,000  Level Cleveland Center
05:06PM 42.7056 -83.7025 168° South 177 204 5,000  Level Cleveland Center
05:06PM 42.6706 -83.6894 165° South 177 204 5,000  Level Cleveland Center
05:07PM 42.6250 -83.6761 168° South 176 203 5,000  Level Cleveland Center
05:08PM 42.5733 -83.6594 167° South 175 201 5,000 -240 Level Cleveland Center
05:10PM 42.5194 -83.6456 169° South 186 214 4,500 -480 Descending Cleveland Center
05:11PM 42.4700 -83.6289 166° South 186 214 4,100 -540 Descending Cleveland Center
05:12PM 42.4139 -83.6150 170° South 193 222 3,500 -480 Descending Cleveland Center
05:13PM 42.3703 -83.6072 172° South 183 211 3,200 -600 Descending Cleveland Center
05:14PM 42.3142 -83.6019 176° South 182 209 2,400 -660 Descending Cleveland Center
05:15PM 42.2644 -83.5939 173° South 163 188 1,900 -660 Descending Cleveland Center
05:16PM 42.2444 -83.5592 128° Southeast 117 135 1,100 -840 Descending Cleveland Center
05:18PM 42.2393 -83.5310 160° South  Level Estimated
05:25PM 42.2393 -83.5310 160° South  Level Estimated